sensor_id;sensor_type;location;lat;lon;timestamp;pressure;altitude;pressure_sealevel;temperature;humidity
74627;BME280;63132;52.268;5.192;2023-11-19T00:02:10;100525.03;;;21.48;54.21
74627;BME280;63132;52.268;5.192;2023-11-19T00:04:39;100537.91;;;22.20;53.77
74627;BME280;63132;52.268;5.192;2023-11-19T00:07:05;100522.66;;;22.11;53.07
74627;BME280;63132;52.268;5.192;2023-11-19T00:09:32;100524.53;;;21.50;54.96
74627;BME280;63132;52.268;5.192;2023-11-19T00:11:57;100532.09;;;22.44;51.73
74627;BME280;63132;52.268;5.192;2023-11-19T00:14:23;100536.41;;;21.54;54.43
74627;BME280;63132;52.268;5.192;2023-11-19T00:16:49;100537.06;;;21.64;54.08
74627;BME280;63132;52.268;5.192;2023-11-19T00:19:16;100551.19;;;22.34;52.63
74627;BME280;63132;52.268;5.192;2023-11-19T00:21:41;100547.59;;;22.13;53.50
74627;BME280;63132;52.268;5.192;2023-11-19T00:24:07;100533.16;;;22.46;52.20
74627;BME280;63132;52.268;5.192;2023-11-19T00:26:33;100533.66;;;21.60;55.01
74627;BME280;63132;52.268;5.192;2023-11-19T00:28:59;100509.09;;;21.95;53.35
74627;BME280;63132;52.268;5.192;2023-11-19T00:31:24;100498.31;;;22.29;51.92
74627;BME280;63132;52.268;5.192;2023-11-19T00:33:51;100501.34;;;21.40;53.83
74627;BME280;63132;52.268;5.192;2023-11-19T00:36:16;100490.91;;;21.96;53.80
74627;BME280;63132;52.268;5.192;2023-11-19T00:38:42;100485.97;;;21.91;53.51
74627;BME280;63132;52.268;5.192;2023-11-19T00:41:07;100498.06;;;21.77;53.25
74627;BME280;63132;52.268;5.192;2023-11-19T00:43:32;100495.34;;;22.03;52.72
74627;BME280;63132;52.268;5.192;2023-11-19T00:45:57;100500.38;;;21.78;53.68
74627;BME280;63132;52.268;5.192;2023-11-19T00:48:23;100513.63;;;22.43;51.73
74627;BME280;63132;52.268;5.192;2023-11-19T00:50:48;100510.53;;;21.26;55.42
74627;BME280;63132;52.268;5.192;2023-11-19T00:53:14;100505.63;;;20.82;55.72
74627;BME280;63132;52.268;5.192;2023-11-19T00:55:39;100523.44;;;22.12;52.91
74627;BME280;63132;52.268;5.192;2023-11-19T00:58:04;100514.31;;;22.37;52.34
74627;BME280;63132;52.268;5.192;2023-11-19T01:00:30;100502.47;;;21.48;54.43
74627;BME280;63132;52.268;5.192;2023-11-19T01:02:57;100508.41;;;22.35;52.71
74627;BME280;63132;52.268;5.192;2023-11-19T01:05:22;100500.38;;;22.75;51.20
74627;BME280;63132;52.268;5.192;2023-11-19T01:07:48;100504.59;;;22.85;51.31
74627;BME280;63132;52.268;5.192;2023-11-19T01:10:14;100500.88;;;22.12;53.77
74627;BME280;63132;52.268;5.192;2023-11-19T01:12:41;100491.97;;;21.64;53.56
74627;BME280;63132;52.268;5.192;2023-11-19T01:15:07;100486.78;;;21.77;53.65
74627;BME280;63132;52.268;5.192;2023-11-19T01:17:32;100488.84;;;21.76;53.37
74627;BME280;63132;52.268;5.192;2023-11-19T01:19:58;100475.16;;;22.65;51.85
74627;BME280;63132;52.268;5.192;2023-11-19T01:22:23;100468.69;;;22.04;52.05
74627;BME280;63132;52.268;5.192;2023-11-19T01:24:48;100462.44;;;21.15;55.23
74627;BME280;63132;52.268;5.192;2023-11-19T01:27:14;100464.25;;;21.77;53.38
74627;BME280;63132;52.268;5.192;2023-11-19T01:29:39;100471.63;;;21.74;53.94
74627;BME280;63132;52.268;5.192;2023-11-19T01:32:04;100463.16;;;20.95;55.54
74627;BME280;63132;52.268;5.192;2023-11-19T01:34:30;100463.41;;;21.56;54.41
74627;BME280;63132;52.268;5.192;2023-11-19T01:36:55;100468.06;;;21.59;54.46
74627;BME280;63132;52.268;5.192;2023-11-19T01:39:21;100461.69;;;21.44;54.17
74627;BME280;63132;52.268;5.192;2023-11-19T01:41:46;100466.78;;;21.60;54.28
74627;BME280;63132;52.268;5.192;2023-11-19T01:44:11;100472.47;;;21.16;55.14
74627;BME280;63132;52.268;5.192;2023-11-19T01:46:44;100470.50;;;21.07;54.99
74627;BME280;63132;52.268;5.192;2023-11-19T01:49:11;100466.06;;;21.30;54.46
74627;BME280;63132;52.268;5.192;2023-11-19T01:51:38;100470.41;;;20.72;55.98
74627;BME280;63132;52.268;5.192;2023-11-19T01:54:05;100483.44;;;21.43;53.52
74627;BME280;63132;52.268;5.192;2023-11-19T01:56:31;100501.13;;;21.29;53.85
74627;BME280;63132;52.268;5.192;2023-11-19T01:58:57;100483.22;;;20.73;55.15
74627;BME280;63132;52.268;5.192;2023-11-19T02:01:22;100483.72;;;21.45;53.61
74627;BME280;63132;52.268;5.192;2023-11-19T02:03:48;100474.66;;;20.67;54.71
74627;BME280;63132;52.268;5.192;2023-11-19T02:06:14;100471.16;;;21.76;52.54
74627;BME280;63132;52.268;5.192;2023-11-19T02:08:40;100468.97;;;21.06;53.51
74627;BME280;63132;52.268;5.192;2023-11-19T02:11:05;100464.59;;;20.90;53.99
74627;BME280;63132;52.268;5.192;2023-11-19T02:13:32;100465.28;;;21.44;52.64
74627;BME280;63132;52.268;5.192;2023-11-19T02:15:58;100480.13;;;21.95;52.05
74627;BME280;63132;52.268;5.192;2023-11-19T02:18:26;100480.91;;;21.45;51.97
74627;BME280;63132;52.268;5.192;2023-11-19T02:20:58;100478.34;;;21.77;51.76
74627;BME280;63132;52.268;5.192;2023-11-19T02:23:26;100482.66;;;19.97;56.05
74627;BME280;63132;52.268;5.192;2023-11-19T02:26:15;100476.91;;;20.78;53.62
74627;BME280;63132;52.268;5.192;2023-11-19T02:28:43;100479.41;;;20.76;53.25
74627;BME280;63132;52.268;5.192;2023-11-19T02:31:08;100479.03;;;20.83;53.36
74627;BME280;63132;52.268;5.192;2023-11-19T02:33:37;100489.16;;;21.19;52.02
74627;BME280;63132;52.268;5.192;2023-11-19T02:36:07;100488.19;;;21.22;52.55
74627;BME280;63132;52.268;5.192;2023-11-19T02:38:34;100498.75;;;20.98;53.55
74627;BME280;63132;52.268;5.192;2023-11-19T02:41:02;100471.19;;;20.87;53.03
74627;BME280;63132;52.268;5.192;2023-11-19T02:43:30;100464.28;;;20.73;53.50
74627;BME280;63132;52.268;5.192;2023-11-19T02:45:56;100477.31;;;21.00;52.49
74627;BME280;63132;52.268;5.192;2023-11-19T02:48:22;100481.31;;;20.94;53.16
74627;BME280;63132;52.268;5.192;2023-11-19T02:50:47;100475.91;;;21.70;50.47
74627;BME280;63132;52.268;5.192;2023-11-19T02:53:13;100469.72;;;20.38;53.10
74627;BME280;63132;52.268;5.192;2023-11-19T02:55:38;100484.09;;;20.79;52.96
74627;BME280;63132;52.268;5.192;2023-11-19T02:58:06;100484.75;;;20.59;52.70
74627;BME280;63132;52.268;5.192;2023-11-19T03:00:45;100481.50;;;21.35;50.78
74627;BME280;63132;52.268;5.192;2023-11-19T03:03:22;100478.88;;;20.24;53.95
74627;BME280;63132;52.268;5.192;2023-11-19T03:05:47;100477.31;;;20.71;53.59
74627;BME280;63132;52.268;5.192;2023-11-19T03:08:13;100476.84;;;20.01;53.85
74627;BME280;63132;52.268;5.192;2023-11-19T03:10:38;100483.91;;;20.20;52.96
74627;BME280;63132;52.268;5.192;2023-11-19T03:13:04;100488.44;;;20.41;52.21
74627;BME280;63132;52.268;5.192;2023-11-19T03:15:29;100484.69;;;19.97;53.98
74627;BME280;63132;52.268;5.192;2023-11-19T03:17:54;100486.34;;;20.90;51.76
74627;BME280;63132;52.268;5.192;2023-11-19T03:20:20;100480.28;;;20.67;51.37
74627;BME280;63132;52.268;5.192;2023-11-19T03:22:46;100481.06;;;19.72;54.39
74627;BME280;63132;52.268;5.192;2023-11-19T03:25:11;100475.41;;;20.53;52.26
74627;BME280;63132;52.268;5.192;2023-11-19T03:27:37;100480.97;;;20.14;53.19
74627;BME280;63132;52.268;5.192;2023-11-19T03:30:07;100466.31;;;20.34;52.72
74627;BME280;63132;52.268;5.192;2023-11-19T03:32:34;100464.75;;;20.09;53.26
74627;BME280;63132;52.268;5.192;2023-11-19T03:35:04;100467.13;;;19.45;55.54
74627;BME280;63132;52.268;5.192;2023-11-19T03:37:29;100463.97;;;20.33;51.93
74627;BME280;63132;52.268;5.192;2023-11-19T03:39:57;100458.94;;;20.61;51.71
74627;BME280;63132;52.268;5.192;2023-11-19T03:42:28;100458.06;;;20.84;51.11
74627;BME280;63132;52.268;5.192;2023-11-19T03:44:53;100461.22;;;21.01;49.50
74627;BME280;63132;52.268;5.192;2023-11-19T03:47:19;100467.28;;;19.83;52.36
74627;BME280;63132;52.268;5.192;2023-11-19T03:49:48;100462.59;;;19.80;53.42
74627;BME280;63132;52.268;5.192;2023-11-19T03:52:14;100478.13;;;20.62;52.41
74627;BME280;63132;52.268;5.192;2023-11-19T03:54:39;100477.84;;;18.95;55.27
74627;BME280;63132;52.268;5.192;2023-11-19T03:57:04;100484.44;;;20.09;52.33
74627;BME280;63132;52.268;5.192;2023-11-19T03:59:30;100476.47;;;20.32;52.14
74627;BME280;63132;52.268;5.192;2023-11-19T04:01:55;100474.50;;;20.23;52.54
74627;BME280;63132;52.268;5.192;2023-11-19T04:04:21;100475.22;;;20.33;52.74
74627;BME280;63132;52.268;5.192;2023-11-19T04:06:46;100475.81;;;20.37;52.02
74627;BME280;63132;52.268;5.192;2023-11-19T04:09:12;100474.50;;;21.30;50.11
74627;BME280;63132;52.268;5.192;2023-11-19T04:11:37;100475.03;;;20.60;51.21
74627;BME280;63132;52.268;5.192;2023-11-19T04:14:02;100487.91;;;21.06;50.66
74627;BME280;63132;52.268;5.192;2023-11-19T04:16:28;100478.66;;;20.13;52.40
74627;BME280;63132;52.268;5.192;2023-11-19T04:18:53;100491.38;;;20.23;51.73
74627;BME280;63132;52.268;5.192;2023-11-19T04:21:19;100503.69;;;20.73;52.18
74627;BME280;63132;52.268;5.192;2023-11-19T04:23:44;100503.28;;;20.42;50.88
74627;BME280;63132;52.268;5.192;2023-11-19T04:26:09;100500.34;;;20.36;51.41
74627;BME280;63132;52.268;5.192;2023-11-19T04:28:35;100492.22;;;20.38;51.44
74627;BME280;63132;52.268;5.192;2023-11-19T04:31:00;100488.28;;;20.45;51.39
74627;BME280;63132;52.268;5.192;2023-11-19T04:33:25;100482.88;;;20.32;51.33
74627;BME280;63132;52.268;5.192;2023-11-19T04:35:51;100489.59;;;20.59;50.09
74627;BME280;63132;52.268;5.192;2023-11-19T04:38:16;100490.53;;;20.08;51.11
74627;BME280;63132;52.268;5.192;2023-11-19T04:40:41;100497.06;;;20.14;51.51
74627;BME280;63132;52.268;5.192;2023-11-19T04:43:07;100498.75;;;20.44;51.14
74627;BME280;63132;52.268;5.192;2023-11-19T04:45:32;100499.22;;;20.67;50.03
74627;BME280;63132;52.268;5.192;2023-11-19T04:47:58;100496.16;;;20.08;51.22
74627;BME280;63132;52.268;5.192;2023-11-19T04:50:23;100495.06;;;21.07;49.68
74627;BME280;63132;52.268;5.192;2023-11-19T04:52:51;100494.31;;;21.36;49.08
74627;BME280;63132;52.268;5.192;2023-11-19T04:55:16;100492.03;;;20.66;50.18
74627;BME280;63132;52.268;5.192;2023-11-19T04:57:41;100487.41;;;20.92;49.98
74627;BME280;63132;52.268;5.192;2023-11-19T05:00:08;100487.56;;;20.11;51.68
74627;BME280;63132;52.268;5.192;2023-11-19T05:02:36;100490.88;;;20.72;49.35
74627;BME280;63132;52.268;5.192;2023-11-19T05:05:02;100488.28;;;19.55;52.97
74627;BME280;63132;52.268;5.192;2023-11-19T05:07:29;100491.50;;;21.06;49.63
74627;BME280;63132;52.268;5.192;2023-11-19T05:09:55;100486.81;;;20.88;49.96
74627;BME280;63132;52.268;5.192;2023-11-19T05:12:20;100492.03;;;20.66;50.17
74627;BME280;63132;52.268;5.192;2023-11-19T05:14:45;100493.13;;;20.83;49.01
74627;BME280;63132;52.268;5.192;2023-11-19T05:17:15;100495.47;;;20.99;49.32
74627;BME280;63132;52.268;5.192;2023-11-19T05:19:40;100492.84;;;20.81;49.48
74627;BME280;63132;52.268;5.192;2023-11-19T05:22:05;100491.22;;;20.27;50.63
74627;BME280;63132;52.268;5.192;2023-11-19T05:24:31;100489.72;;;20.79;49.08
74627;BME280;63132;52.268;5.192;2023-11-19T05:26:57;100490.28;;;20.68;49.45
74627;BME280;63132;52.268;5.192;2023-11-19T05:29:23;100496.25;;;20.46;50.06
74627;BME280;63132;52.268;5.192;2023-11-19T05:31:49;100497.94;;;19.96;50.46
74627;BME280;63132;52.268;5.192;2023-11-19T05:34:14;100481.16;;;20.59;49.00
74627;BME280;63132;52.268;5.192;2023-11-19T05:36:40;100482.16;;;19.75;50.17
74627;BME280;63132;52.268;5.192;2023-11-19T05:39:05;100504.06;;;19.52;51.57
74627;BME280;63132;52.268;5.192;2023-11-19T05:41:31;100505.31;;;19.94;50.38
74627;BME280;63132;52.268;5.192;2023-11-19T05:43:56;100501.78;;;20.08;49.59
74627;BME280;63132;52.268;5.192;2023-11-19T05:46:21;100503.25;;;20.51;48.97
74627;BME280;63132;52.268;5.192;2023-11-19T05:48:48;100504.25;;;20.15;49.66
74627;BME280;63132;52.268;5.192;2023-11-19T05:51:13;100507.38;;;19.84;50.10
74627;BME280;63132;52.268;5.192;2023-11-19T05:53:40;100510.13;;;20.26;48.24
74627;BME280;63132;52.268;5.192;2023-11-19T05:56:06;100504.94;;;19.16;50.56
74627;BME280;63132;52.268;5.192;2023-11-19T05:58:34;100502.69;;;19.81;49.69
74627;BME280;63132;52.268;5.192;2023-11-19T06:01:01;100503.41;;;20.48;47.94
74627;BME280;63132;52.268;5.192;2023-11-19T06:03:27;100508.78;;;20.36;47.80
74627;BME280;63132;52.268;5.192;2023-11-19T06:05:53;100498.81;;;20.35;47.82
74627;BME280;63132;52.268;5.192;2023-11-19T06:08:19;100495.94;;;20.21;48.56
74627;BME280;63132;52.268;5.192;2023-11-19T06:10:46;100506.78;;;20.04;49.26
74627;BME280;63132;52.268;5.192;2023-11-19T06:13:12;100502.19;;;19.58;49.89
74627;BME280;63132;52.268;5.192;2023-11-19T06:15:38;100506.84;;;19.95;49.21
74627;BME280;63132;52.268;5.192;2023-11-19T06:18:03;100508.16;;;19.84;49.30
74627;BME280;63132;52.268;5.192;2023-11-19T06:20:29;100510.38;;;20.76;47.03
74627;BME280;63132;52.268;5.192;2023-11-19T06:22:56;100503.88;;;20.70;47.39
74627;BME280;63132;52.268;5.192;2023-11-19T06:25:22;100505.56;;;20.53;47.97
74627;BME280;63132;52.268;5.192;2023-11-19T06:27:49;100501.41;;;21.16;47.12
74627;BME280;63132;52.268;5.192;2023-11-19T06:30:14;100508.59;;;20.16;48.83
74627;BME280;63132;52.268;5.192;2023-11-19T06:32:47;100500.66;;;19.90;49.60
74627;BME280;63132;52.268;5.192;2023-11-19T06:35:12;100498.03;;;20.35;48.12
74627;BME280;63132;52.268;5.192;2023-11-19T06:37:39;100495.88;;;20.54;47.58
74627;BME280;63132;52.268;5.192;2023-11-19T06:40:05;100508.59;;;20.40;47.77
74627;BME280;63132;52.268;5.192;2023-11-19T06:42:32;100506.59;;;20.64;47.12
74627;BME280;63132;52.268;5.192;2023-11-19T06:44:57;100516.72;;;20.47;47.94
74627;BME280;63132;52.268;5.192;2023-11-19T06:47:26;100509.81;;;20.48;47.52
74627;BME280;63132;52.268;5.192;2023-11-19T06:49:53;100512.66;;;21.01;46.46
74627;BME280;63132;52.268;5.192;2023-11-19T06:52:18;100521.31;;;19.78;50.47
74627;BME280;63132;52.268;5.192;2023-11-19T06:54:44;100508.25;;;19.99;49.28
74627;BME280;63132;52.268;5.192;2023-11-19T06:57:10;100512.72;;;19.73;49.71
74627;BME280;63132;52.268;5.192;2023-11-19T06:59:36;100506.69;;;19.65;49.56
74627;BME280;63132;52.268;5.192;2023-11-19T07:02:02;100516.97;;;20.25;49.04
74627;BME280;63132;52.268;5.192;2023-11-19T07:04:27;100517.34;;;20.42;47.52
74627;BME280;63132;52.268;5.192;2023-11-19T07:06:52;100519.56;;;19.39;50.09
74627;BME280;63132;52.268;5.192;2023-11-19T07:09:18;100525.47;;;19.92;49.39
74627;BME280;63132;52.268;5.192;2023-11-19T07:11:43;100530.94;;;19.86;49.79
74627;BME280;63132;52.268;5.192;2023-11-19T07:14:10;100536.78;;;21.32;46.67
74627;BME280;63132;52.268;5.192;2023-11-19T07:16:37;100539.69;;;20.45;47.70
74627;BME280;63132;52.268;5.192;2023-11-19T07:19:03;100545.09;;;20.25;48.15
74627;BME280;63132;52.268;5.192;2023-11-19T07:21:30;100552.50;;;20.46;48.41
74627;BME280;63132;52.268;5.192;2023-11-19T07:23:56;100541.34;;;20.76;47.36
74627;BME280;63132;52.268;5.192;2023-11-19T07:26:22;100546.72;;;20.17;48.72
74627;BME280;63132;52.268;5.192;2023-11-19T07:28:47;100549.50;;;20.74;47.40
74627;BME280;63132;52.268;5.192;2023-11-19T07:31:13;100545.28;;;20.22;48.67
74627;BME280;63132;52.268;5.192;2023-11-19T07:33:42;100553.31;;;20.62;47.71
74627;BME280;63132;52.268;5.192;2023-11-19T07:36:08;100551.56;;;20.88;47.43
74627;BME280;63132;52.268;5.192;2023-11-19T07:38:34;100545.44;;;19.94;50.00
74627;BME280;63132;52.268;5.192;2023-11-19T07:40:59;100552.81;;;20.39;48.62
74627;BME280;63132;52.268;5.192;2023-11-19T07:43:26;100551.81;;;19.43;50.57
74627;BME280;63132;52.268;5.192;2023-11-19T07:45:51;100557.31;;;20.94;47.55
74627;BME280;63132;52.268;5.192;2023-11-19T07:48:16;100549.97;;;20.72;49.28
74627;BME280;63132;52.268;5.192;2023-11-19T07:50:47;100559.06;;;20.67;48.03
74627;BME280;63132;52.268;5.192;2023-11-19T07:53:13;100559.56;;;21.05;47.15
74627;BME280;63132;52.268;5.192;2023-11-19T07:55:39;100557.03;;;20.11;48.54
74627;BME280;63132;52.268;5.192;2023-11-19T07:58:04;100551.63;;;20.31;48.35
74627;BME280;63132;52.268;5.192;2023-11-19T08:00:30;100545.41;;;20.27;48.53
74627;BME280;63132;52.268;5.192;2023-11-19T08:02:55;100548.91;;;20.85;47.64
74627;BME280;63132;52.268;5.192;2023-11-19T08:05:20;100539.53;;;20.16;48.39
74627;BME280;63132;52.268;5.192;2023-11-19T08:07:46;100539.88;;;20.09;48.45
74627;BME280;63132;52.268;5.192;2023-11-19T08:10:12;100549.63;;;19.99;49.66
74627;BME280;63132;52.268;5.192;2023-11-19T08:12:37;100545.50;;;20.09;49.16
74627;BME280;63132;52.268;5.192;2023-11-19T08:15:03;100531.28;;;20.36;48.42
74627;BME280;63132;52.268;5.192;2023-11-19T08:17:30;100531.88;;;20.40;49.41
74627;BME280;63132;52.268;5.192;2023-11-19T08:19:55;100534.06;;;20.45;48.35
74627;BME280;63132;52.268;5.192;2023-11-19T08:22:21;100538.13;;;19.87;49.81
74627;BME280;63132;52.268;5.192;2023-11-19T08:24:47;100538.78;;;19.82;49.75
74627;BME280;63132;52.268;5.192;2023-11-19T08:27:13;100549.63;;;19.99;49.77
74627;BME280;63132;52.268;5.192;2023-11-19T08:29:38;100563.94;;;20.67;48.22
74627;BME280;63132;52.268;5.192;2023-11-19T08:32:04;100562.78;;;19.92;49.86
74627;BME280;63132;52.268;5.192;2023-11-19T08:34:29;100571.03;;;20.77;49.17
74627;BME280;63132;52.268;5.192;2023-11-19T08:36:54;100559.78;;;19.45;50.76
74627;BME280;63132;52.268;5.192;2023-11-19T08:39:21;100564.63;;;19.96;50.81
74627;BME280;63132;52.268;5.192;2023-11-19T08:41:46;100563.09;;;20.52;49.37
74627;BME280;63132;52.268;5.192;2023-11-19T08:44:11;100558.06;;;20.80;48.64
74627;BME280;63132;52.268;5.192;2023-11-19T08:46:37;100559.66;;;19.90;50.09
74627;BME280;63132;52.268;5.192;2023-11-19T08:49:02;100565.66;;;19.74;50.60
74627;BME280;63132;52.268;5.192;2023-11-19T08:51:28;100564.78;;;20.25;49.16
74627;BME280;63132;52.268;5.192;2023-11-19T08:53:53;100564.69;;;20.43;49.14
74627;BME280;63132;52.268;5.192;2023-11-19T08:56:18;100565.78;;;20.46;49.21
74627;BME280;63132;52.268;5.192;2023-11-19T08:58:44;100573.28;;;20.16;50.02
74627;BME280;63132;52.268;5.192;2023-11-19T09:01:09;100561.09;;;21.06;47.67
74627;BME280;63132;52.268;5.192;2023-11-19T09:03:34;100561.38;;;21.08;47.48
74627;BME280;63132;52.268;5.192;2023-11-19T09:06:00;100567.81;;;21.23;47.21
74627;BME280;63132;52.268;5.192;2023-11-19T09:08:25;100559.50;;;20.51;49.01
74627;BME280;63132;52.268;5.192;2023-11-19T09:10:50;100558.53;;;19.97;49.44
74627;BME280;63132;52.268;5.192;2023-11-19T09:13:16;100559.28;;;20.07;49.33
74627;BME280;63132;52.268;5.192;2023-11-19T09:15:41;100555.72;;;21.61;46.41
74627;BME280;63132;52.268;5.192;2023-11-19T09:18:07;100559.59;;;21.34;46.68
74627;BME280;63132;52.268;5.192;2023-11-19T09:20:32;100554.25;;;20.83;47.35
74627;BME280;63132;52.268;5.192;2023-11-19T09:23:03;100550.38;;;20.32;48.84
74627;BME280;63132;52.268;5.192;2023-11-19T09:25:28;100558.38;;;22.00;45.47
74627;BME280;63132;52.268;5.192;2023-11-19T09:27:53;100552.91;;;20.93;47.55
74627;BME280;63132;52.268;5.192;2023-11-19T09:30:19;100548.31;;;20.66;48.93
74627;BME280;63132;52.268;5.192;2023-11-19T09:32:44;100566.00;;;21.79;46.70
74627;BME280;63132;52.268;5.192;2023-11-19T09:35:09;100556.81;;;20.95;47.91
74627;BME280;63132;52.268;5.192;2023-11-19T09:37:38;100556.41;;;20.88;47.64
74627;BME280;63132;52.268;5.192;2023-11-19T09:40:04;100551.94;;;20.81;47.07
74627;BME280;63132;52.268;5.192;2023-11-19T09:42:32;100559.00;;;22.24;45.24
74627;BME280;63132;52.268;5.192;2023-11-19T09:45:14;100546.78;;;21.63;45.39
74627;BME280;63132;52.268;5.192;2023-11-19T09:47:43;100546.94;;;21.74;45.08
74627;BME280;63132;52.268;5.192;2023-11-19T09:50:10;100547.06;;;20.10;49.70
74627;BME280;63132;52.268;5.192;2023-11-19T09:52:39;100547.34;;;21.37;46.28
74627;BME280;63132;52.268;5.192;2023-11-19T09:55:04;100537.28;;;21.95;45.04
74627;BME280;63132;52.268;5.192;2023-11-19T09:57:31;100540.63;;;21.20;47.31
74627;BME280;63132;52.268;5.192;2023-11-19T09:59:58;100546.69;;;21.42;46.73
74627;BME280;63132;52.268;5.192;2023-11-19T10:02:23;100541.25;;;21.53;46.15
74627;BME280;63132;52.268;5.192;2023-11-19T10:04:49;100550.38;;;21.63;46.67
74627;BME280;63132;52.268;5.192;2023-11-19T10:07:16;100538.06;;;21.31;46.41
74627;BME280;63132;52.268;5.192;2023-11-19T10:09:41;100534.81;;;21.68;46.43
74627;BME280;63132;52.268;5.192;2023-11-19T10:12:06;100536.63;;;20.58;48.65
74627;BME280;63132;52.268;5.192;2023-11-19T10:14:32;100537.94;;;21.70;45.78
74627;BME280;63132;52.268;5.192;2023-11-19T10:17:01;100534.53;;;22.16;44.87
74627;BME280;63132;52.268;5.192;2023-11-19T10:19:29;100541.91;;;21.19;46.42
74627;BME280;63132;52.268;5.192;2023-11-19T10:21:54;100556.25;;;21.95;45.01
74627;BME280;63132;52.268;5.192;2023-11-19T10:24:31;100542.38;;;22.67;43.71
74627;BME280;63132;52.268;5.192;2023-11-19T10:26:57;100543.38;;;22.44;44.21
74627;BME280;63132;52.268;5.192;2023-11-19T10:29:23;100538.69;;;22.81;43.17
74627;BME280;63132;52.268;5.192;2023-11-19T10:31:56;100538.91;;;22.78;43.38
74627;BME280;63132;52.268;5.192;2023-11-19T10:34:26;100535.22;;;22.72;43.49
74627;BME280;63132;52.268;5.192;2023-11-19T10:36:51;100548.44;;;22.04;45.26
74627;BME280;63132;52.268;5.192;2023-11-19T10:39:17;100546.16;;;21.14;46.63
74627;BME280;63132;52.268;5.192;2023-11-19T10:41:43;100546.00;;;21.97;44.83
74627;BME280;63132;52.268;5.192;2023-11-19T10:44:08;100543.47;;;21.49;46.30
74627;BME280;63132;52.268;5.192;2023-11-19T10:46:41;100550.09;;;21.46;46.89
74627;BME280;63132;52.268;5.192;2023-11-19T10:49:07;100520.38;;;20.77;48.72
74627;BME280;63132;52.268;5.192;2023-11-19T10:51:33;100532.78;;;21.24;46.79
74627;BME280;63132;52.268;5.192;2023-11-19T10:54:02;100533.13;;;20.49;49.47
74627;BME280;63132;52.268;5.192;2023-11-19T10:56:31;100538.25;;;20.89;48.07
74627;BME280;63132;52.268;5.192;2023-11-19T10:58:59;100534.19;;;21.93;46.00
74627;BME280;63132;52.268;5.192;2023-11-19T11:01:28;100538.72;;;21.55;46.47
74627;BME280;63132;52.268;5.192;2023-11-19T11:03:59;100546.50;;;21.31;47.49
74627;BME280;63132;52.268;5.192;2023-11-19T11:06:26;100529.09;;;21.97;44.47
74627;BME280;63132;52.268;5.192;2023-11-19T11:08:52;100548.78;;;21.18;46.56
74627;BME280;63132;52.268;5.192;2023-11-19T11:11:18;100540.03;;;22.25;44.15
74627;BME280;63132;52.268;5.192;2023-11-19T11:13:47;100536.75;;;22.67;43.96
74627;BME280;63132;52.268;5.192;2023-11-19T11:16:13;100532.03;;;22.58;43.03
74627;BME280;63132;52.268;5.192;2023-11-19T11:18:39;100528.91;;;22.16;43.09
74627;BME280;63132;52.268;5.192;2023-11-19T11:21:12;100536.88;;;22.02;43.10
74627;BME280;63132;52.268;5.192;2023-11-19T11:27:02;100523.09;;;21.90;42.79
74627;BME280;63132;52.268;5.192;2023-11-19T11:38:04;100507.97;;;22.07;43.02
74627;BME280;63132;52.268;5.192;2023-11-19T11:40:29;100522.91;;;21.93;43.22
74627;BME280;63132;52.268;5.192;2023-11-19T11:42:54;100517.25;;;22.08;42.76
74627;BME280;63132;52.268;5.192;2023-11-19T11:45:35;100512.41;;;21.94;43.07
74627;BME280;63132;52.268;5.192;2023-11-19T11:48:10;100510.66;;;22.98;41.37
74627;BME280;63132;52.268;5.192;2023-11-19T11:50:47;100511.63;;;22.28;42.21
74627;BME280;63132;52.268;5.192;2023-11-19T11:53:16;100519.72;;;22.41;41.89
74627;BME280;63132;52.268;5.192;2023-11-19T11:58:13;100502.22;;;23.30;39.96
74627;BME280;63132;52.268;5.192;2023-11-19T12:00:40;100499.09;;;23.54;39.68
74627;BME280;63132;52.268;5.192;2023-11-19T12:03:07;100498.69;;;22.62;40.69
74627;BME280;63132;52.268;5.192;2023-11-19T12:05:45;100499.88;;;23.54;39.70
74627;BME280;63132;52.268;5.192;2023-11-19T12:08:12;100502.56;;;22.85;40.63
74627;BME280;63132;52.268;5.192;2023-11-19T12:10:45;100494.13;;;21.89;42.45
74627;BME280;63132;52.268;5.192;2023-11-19T12:13:13;100490.47;;;23.37;39.96
74627;BME280;63132;52.268;5.192;2023-11-19T12:18:31;100500.94;;;22.79;41.23
74627;BME280;63132;52.268;5.192;2023-11-19T12:20:58;100502.16;;;21.76;43.74
74627;BME280;63132;52.268;5.192;2023-11-19T12:23:29;100508.75;;;21.73;43.57
74627;BME280;63132;52.268;5.192;2023-11-19T12:25:55;100506.56;;;22.79;41.99
74627;BME280;63132;52.268;5.192;2023-11-19T12:28:20;100505.91;;;21.88;42.99
74627;BME280;63132;52.268;5.192;2023-11-19T12:30:46;100494.59;;;22.63;42.03
74627;BME280;63132;52.268;5.192;2023-11-19T12:33:13;100504.00;;;22.55;42.97
74627;BME280;63132;52.268;5.192;2023-11-19T12:35:46;100511.91;;;22.51;43.22
74627;BME280;63132;52.268;5.192;2023-11-19T12:38:25;100518.06;;;22.29;42.33
74627;BME280;63132;52.268;5.192;2023-11-19T12:43:29;100507.31;;;21.18;44.98
74627;BME280;63132;52.268;5.192;2023-11-19T12:45:54;100507.03;;;21.61;44.12
74627;BME280;63132;52.268;5.192;2023-11-19T12:48:20;100500.13;;;21.62;43.71
74627;BME280;63132;52.268;5.192;2023-11-19T12:50:55;100507.91;;;22.37;42.57
74627;BME280;63132;52.268;5.192;2023-11-19T12:53:22;100517.19;;;22.23;42.40
74627;BME280;63132;52.268;5.192;2023-11-19T12:55:48;100501.19;;;21.64;43.74
74627;BME280;63132;52.268;5.192;2023-11-19T12:58:33;100498.88;;;21.63;44.09
74627;BME280;63132;52.268;5.192;2023-11-19T13:01:04;100499.03;;;23.16;40.87
74627;BME280;63132;52.268;5.192;2023-11-19T13:03:31;100499.34;;;21.96;42.25
74627;BME280;63132;52.268;5.192;2023-11-19T13:06:07;100494.16;;;22.91;40.44
74627;BME280;63132;52.268;5.192;2023-11-19T13:08:48;100499.81;;;22.71;39.86